Main page
METAR-TAF:

METAR-TAF

Airports :

Guaratinguetá, São Paulo, Brazil

latitude: 22-47S, longitude: 045-12W, elevation: 537 m

Current weather observation

The report was made 3 hours and 15 minutes ago, at 20:00 UTC
Wind 4 kt from the East/Northeast
Temperature 21°C
Humidity 94%
Pressure 1017 hPa
Visibility: 8000 m
Few clouds at a height of 800 ft
Broken clouds at a height of 3000 ft
Overcast at a height of 8000 ft

METAR: SBGW 202000Z 06004KT 8000 FEW008 BKN030 OVC080 21/20 Q1017

Time: 20:15 (23:15 UTC)

Forecast

The report was made 7 hours and 45 minutes ago, at 15:30 UTC
Forecast valid from 20 at 18 UTC to 21 at 06 UTC
Wind 7 kt from the West/Northwest
Visibility 10 km or more
Scattered clouds at a height of 3000 ft
Temporary
from 20 at 18 UTC to 20 at 20 UTC
Visibility: 8000 m
Scattered clouds at a height of 2500 ft
Few clouds at a height of 3000 ft, Cumulonimbus.
thunderstorm, rain

TAF: SBGW 201530Z 2018/2106 29007KT 9999 SCT030 TX25/2018Z TN20/2106Z TEMPO 2018/2020 8000 TSRA SCT025 FEW030CB RMK PDW

Weather observations and forecasts of more than 4000 airports (METAR and TAF reports).

The available stations are represented by yellow and red dots on the map.

Hover mouse over dot to see the name of the station.

Then click to see weather observations and forecasts.

To change the map : click on the green buttons with a black cross to zoom in, on the green button with a dash to zoom out, or on the green arrows for adjacent maps.


METAR-TAF: